createdAt,value
2019-01-18T00:04:45.038Z,5.00
2019-01-18T00:08:21.845Z,5.20
2019-01-18T00:09:55.599Z,5.40
2019-01-18T00:12:26.637Z,4.80
2019-01-18T00:14:58.618Z,4.80
2019-01-18T00:17:30.661Z,5.00
2019-01-18T00:20:46.381Z,5.20
2019-01-18T00:23:19.139Z,4.90
2019-01-18T00:25:48.835Z,4.90
2019-01-18T00:28:21.220Z,5.10
2019-01-18T00:30:52.905Z,5.30
2019-01-18T00:33:53.148Z,5.10
2019-01-18T00:36:24.103Z,5.20
2019-01-18T00:38:54.869Z,5.00
2019-01-18T00:41:53.948Z,5.20
2019-01-18T00:44:22.880Z,5.10
2019-01-18T00:46:55.657Z,5.00
2019-01-18T00:49:35.285Z,5.00
2019-01-18T00:52:08.859Z,4.80
2019-01-18T00:55:30.991Z,4.80
2019-01-18T00:58:01.543Z,4.80
2019-01-18T01:00:33.350Z,5.00
2019-01-18T01:03:27.248Z,4.90
2019-01-18T01:05:59.003Z,4.90
2019-01-18T01:08:32.479Z,4.90
2019-01-18T01:11:19.188Z,4.80
2019-01-18T01:13:58.617Z,4.90
2019-01-18T01:17:13.235Z,4.90
2019-01-18T01:19:42.026Z,4.90
2019-01-18T01:22:18.533Z,4.70
2019-01-18T01:25:29.203Z,4.50
2019-01-18T01:27:59.873Z,4.60
2019-01-18T01:30:33.580Z,4.90
2019-01-18T01:33:14.285Z,4.90
2019-01-18T01:35:44.070Z,4.90
2019-01-18T01:39:08.177Z,5.00
2019-01-18T01:41:38.748Z,4.60
2019-01-18T01:44:09.525Z,4.50
2019-01-18T01:47:05.118Z,4.60
2019-01-18T01:49:35.065Z,4.80
2019-01-18T01:52:05.068Z,4.70
2019-01-18T01:54:43.862Z,4.70
2019-01-18T01:57:15.389Z,4.60
2019-01-18T02:00:29.201Z,4.50
2019-01-18T02:03:02.144Z,4.40
2019-01-18T02:05:32.152Z,4.20
2019-01-18T02:08:45.215Z,4.20
2019-01-18T02:11:16.225Z,4.30
2019-01-18T02:13:45.035Z,4.20
2019-01-18T02:16:13.825Z,4.30
2019-01-18T02:18:42.622Z,4.40
2019-01-18T02:22:03.844Z,4.10
2019-01-18T02:24:37.914Z,4.10
2019-01-18T02:27:10.049Z,4.00
2019-01-18T02:30:33.289Z,4.00
2019-01-18T02:33:07.247Z,4.10
2019-01-18T02:36:26.667Z,4.10
2019-01-18T02:38:58.829Z,4.20
2019-01-18T02:42:23.441Z,4.40
2019-01-18T02:44:56.455Z,2.70
2019-01-18T02:47:27.030Z,4.70
2019-01-18T02:50:00.083Z,5.00
2019-01-18T02:52:32.903Z,4.80
2019-01-18T02:55:32.241Z,4.50
2019-01-18T02:58:01.154Z,4.40
2019-01-18T03:00:31.505Z,4.20
2019-01-18T03:03:25.701Z,4.10
2019-01-18T03:05:56.620Z,4.20
2019-01-18T03:08:29.798Z,4.20
2019-01-18T03:11:08.373Z,4.10
2019-01-18T03:13:40.056Z,4.10
2019-01-18T03:16:43.648Z,4.10
2019-01-18T03:19:12.521Z,4.20
2019-01-18T03:24:34.751Z,3.50
2019-01-18T03:27:05.992Z,1.90
2019-01-18T03:30:18.298Z,4.00
2019-01-18T03:32:37.009Z,3.60
2019-01-18T03:35:08.966Z,3.50
2019-01-18T03:37:37.788Z,3.10
2019-01-18T03:40:09.386Z,3.70
2019-01-18T03:43:30.083Z,3.80
2019-01-18T03:45:58.910Z,3.90
2019-01-18T03:48:27.768Z,4.20
2019-01-18T03:51:20.395Z,4.40
2019-01-18T03:53:51.119Z,4.40
2019-01-18T03:56:19.573Z,4.10
2019-01-18T03:58:55.670Z,4.70
2019-01-18T04:01:24.422Z,4.80
2019-01-18T04:04:20.209Z,4.90
2019-01-18T04:06:48.992Z,4.60
2019-01-18T04:09:17.808Z,4.50
2019-01-18T04:12:18.733Z,4.60
2019-01-18T04:14:47.719Z,4.70
2019-01-18T04:17:18.694Z,4.60
2019-01-18T04:19:54.621Z,4.60
2019-01-18T04:22:23.395Z,5.20
2019-01-18T04:25:40.303Z,5.00
2019-01-18T04:28:09.129Z,5.10
2019-01-18T04:30:37.919Z,5.00
2019-01-18T04:33:42.886Z,4.90
2019-01-18T04:36:12.283Z,4.90
2019-01-18T04:38:41.265Z,4.70
2019-01-18T04:41:16.216Z,4.70
2019-01-18T04:43:45.281Z,4.70
2019-01-18T04:47:02.364Z,4.70
2019-01-18T04:49:31.242Z,4.80
2019-01-18T04:52:00.104Z,4.40
2019-01-18T04:55:23.286Z,4.50
2019-01-18T04:57:52.078Z,4.80
2019-01-18T05:00:23.588Z,4.90
2019-01-18T05:02:58.406Z,5.10
2019-01-18T05:05:27.338Z,5.20
2019-01-18T05:07:56.084Z,5.00
2019-01-18T05:10:32.191Z,4.90
2019-01-18T05:13:01.097Z,4.80
2019-01-18T05:16:14.848Z,4.20
2019-01-18T05:18:43.646Z,4.90
2019-01-18T05:21:12.688Z,5.10
2019-01-18T05:24:09.794Z,5.00
2019-01-18T05:26:41.779Z,4.60
2019-01-18T05:30:18.424Z,4.50
2019-01-18T05:31:50.391Z,4.60
2019-01-18T05:34:22.665Z,4.40
2019-01-18T05:37:46.661Z,2.90
2019-01-18T05:40:18.767Z,4.50
2019-01-18T05:42:52.774Z,4.70
2019-01-18T05:46:06.866Z,4.90
2019-01-18T05:48:40.543Z,5.60
2019-01-18T05:51:13.053Z,4.60
2019-01-18T05:53:51.757Z,4.80
2019-01-18T05:56:25.065Z,4.90
2019-01-18T05:59:32.367Z,4.90
2019-01-18T06:02:05.958Z,4.80
2019-01-18T06:04:39.925Z,4.50
2019-01-18T06:08:05.681Z,4.60
2019-01-18T06:10:39.495Z,4.70
2019-01-18T06:13:59.109Z,4.50
2019-01-18T06:16:33.278Z,4.80
2019-01-18T06:19:04.364Z,3.80
2019-01-18T06:21:57.453Z,4.70
2019-01-18T06:24:31.789Z,5.90
2019-01-18T06:27:20.073Z,5.00
2019-01-18T06:29:53.804Z,5.20
2019-01-18T06:32:25.937Z,5.00
2019-01-18T06:34:55.781Z,4.90
2019-01-18T06:37:29.025Z,4.80
2019-01-18T06:39:57.822Z,4.70
2019-01-18T06:42:28.860Z,4.50
2019-01-18T06:45:02.116Z,4.50
2019-01-18T06:47:33.592Z,4.40
2019-01-18T06:50:06.206Z,4.70
2019-01-18T06:53:17.104Z,4.80
2019-01-18T06:55:46.407Z,4.70
2019-01-18T06:58:15.373Z,4.50
2019-01-18T07:00:45.530Z,4.50
2019-01-18T07:03:17.404Z,4.60
2019-01-18T07:05:46.218Z,4.60
2019-01-18T07:08:16.578Z,4.60
2019-01-18T07:10:46.006Z,4.60
2019-01-18T07:13:15.944Z,4.50
2019-01-18T07:15:45.429Z,4.50
2019-01-18T07:18:16.183Z,4.60
2019-01-18T07:20:45.604Z,4.60
2019-01-18T07:23:17.533Z,4.50
2019-01-18T07:25:50.111Z,4.40
2019-01-18T07:28:23.117Z,4.40
2019-01-18T07:30:57.621Z,4.30
2019-01-18T07:33:35.452Z,4.30
2019-01-18T07:36:07.300Z,4.40
2019-01-18T07:38:47.658Z,4.30
2019-01-18T07:41:24.737Z,4.20
2019-01-18T07:43:53.807Z,4.20
2019-01-18T07:46:22.752Z,4.40
2019-01-18T07:48:51.546Z,4.50
2019-01-18T07:51:20.741Z,4.60
2019-01-18T07:53:50.617Z,4.00
2019-01-18T07:56:19.441Z,4.70
2019-01-18T07:58:49.864Z,4.70
2019-01-18T08:01:22.304Z,4.70
2019-01-18T08:03:51.156Z,4.70
2019-01-18T08:06:26.573Z,4.80
2019-01-18T08:08:57.340Z,4.80
2019-01-18T08:11:26.606Z,4.80
2019-01-18T08:13:55.540Z,4.70
2019-01-18T08:16:24.599Z,4.70
2019-01-18T08:18:59.284Z,4.60
2019-01-18T08:21:28.177Z,4.70
2019-01-18T08:23:56.935Z,4.80
2019-01-18T08:26:44.017Z,4.90
2019-01-18T08:29:09.551Z,5.10
2019-01-18T08:31:42.763Z,5.20
2019-01-18T08:34:13.925Z,5.30
2019-01-18T08:36:43.320Z,5.30
2019-01-18T08:39:12.162Z,5.20
2019-01-18T08:41:41.044Z,5.30
2019-01-18T08:44:10.176Z,5.40
2019-01-18T08:46:41.300Z,7.50
2019-01-18T08:49:17.271Z,5.80
2019-01-18T08:51:50.720Z,6.00
2019-01-18T08:54:21.206Z,6.10
2019-01-18T08:57:08.614Z,6.30
2019-01-18T08:59:43.490Z,6.30
2019-01-18T09:02:18.811Z,6.40
2019-01-18T09:04:50.031Z,6.40
2019-01-18T09:07:20.422Z,6.50
2019-01-18T09:09:53.856Z,6.60
2019-01-18T09:12:26.276Z,6.60
2019-01-18T09:14:57.235Z,7.10
2019-01-18T09:18:03.842Z,6.60
2019-01-18T09:20:09.463Z,5.70
2019-01-18T09:22:43.985Z,5.70
2019-01-18T09:25:15.183Z,5.80
2019-01-18T09:27:55.557Z,5.20
2019-01-18T09:30:35.848Z,5.30
2019-01-18T09:33:11.138Z,5.00
2019-01-18T09:35:50.476Z,4.70
2019-01-18T09:38:25.235Z,4.80
2019-01-18T09:41:01.162Z,5.30
2019-01-18T09:43:31.712Z,5.50
2019-01-18T09:46:01.041Z,5.60
2019-01-18T09:48:31.108Z,5.70
2019-01-18T09:51:08.319Z,5.80
2019-01-18T09:53:40.405Z,5.80
2019-01-18T09:56:14.232Z,7.20
2019-01-18T09:58:50.912Z,5.30
2019-01-18T10:01:23.892Z,5.60
2019-01-18T10:04:01.006Z,5.50
2019-01-18T10:06:36.841Z,5.60
2019-01-18T10:09:09.926Z,5.00
2019-01-18T10:11:59.064Z,5.30
2019-01-18T10:14:34.887Z,5.00
2019-01-18T10:17:09.570Z,5.00
2019-01-18T10:19:42.603Z,5.10
2019-01-18T10:22:12.905Z,5.20
2019-01-18T10:24:44.268Z,5.30
2019-01-18T10:27:23.892Z,4.80
2019-01-18T10:29:52.038Z,4.40
2019-01-18T10:32:31.063Z,4.50
2019-01-18T10:35:02.932Z,4.60
2019-01-18T10:37:44.727Z,4.90
2019-01-18T10:40:21.405Z,5.10
2019-01-18T10:42:58.136Z,5.10
2019-01-18T10:45:29.956Z,4.90
2019-01-18T10:48:11.072Z,3.90
2019-01-18T10:50:43.802Z,3.60
2019-01-18T10:53:26.449Z,3.40
2019-01-18T10:55:58.720Z,3.40
2019-01-18T10:58:30.651Z,4.00
2019-01-18T11:01:02.382Z,4.20
2019-01-18T11:03:36.886Z,4.40
2019-01-18T11:06:10.850Z,4.70
2019-01-18T11:09:02.014Z,5.00
2019-01-18T11:11:28.058Z,5.20
2019-01-18T11:13:58.844Z,5.60
2019-01-18T11:16:31.838Z,5.30
2019-01-18T11:19:03.996Z,5.20
2019-01-18T11:21:36.459Z,5.40
2019-01-18T11:24:08.060Z,5.40
2019-01-18T11:26:39.906Z,5.80
2019-01-18T11:29:22.334Z,6.20
2019-01-18T11:32:44.536Z,4.60
2019-01-18T11:35:22.618Z,6.20
2019-01-18T11:38:23.730Z,6.50
2019-01-18T11:41:17.706Z,6.70
2019-01-18T11:46:47.513Z,6.80
2019-01-18T11:49:20.791Z,7.10
2019-01-18T11:52:01.813Z,7.20
2019-01-18T11:54:33.974Z,7.10
2019-01-18T11:57:08.678Z,7.00
2019-01-18T11:59:56.689Z,6.70
2019-01-18T12:02:16.206Z,6.30
2019-01-18T12:04:48.678Z,6.30
2019-01-18T12:07:16.586Z,6.40
2019-01-18T12:09:45.744Z,6.20
2019-01-18T12:12:25.554Z,6.50
2019-01-18T12:14:57.359Z,6.50
2019-01-18T12:17:36.463Z,6.20
2019-01-18T12:20:20.382Z,6.20
2019-01-18T12:22:59.680Z,6.30
2019-01-18T12:25:38.425Z,5.90
2019-01-18T12:28:19.876Z,5.10
2019-01-18T12:30:50.298Z,5.10
2019-01-18T12:33:28.617Z,5.60
2019-01-18T12:36:06.983Z,5.70
2019-01-18T12:38:38.583Z,5.00
2019-01-18T12:41:08.187Z,5.00
2019-01-18T12:43:42.175Z,5.50
2019-01-18T12:46:13.917Z,5.90
2019-01-18T12:48:45.936Z,6.20
2019-01-18T12:51:18.588Z,5.80
2019-01-18T12:53:49.731Z,6.10
2019-01-18T12:56:35.566Z,6.10
2019-01-18T12:59:07.177Z,6.10
2019-01-18T13:01:47.206Z,6.40
2019-01-18T13:04:23.281Z,6.60
2019-01-18T13:06:52.459Z,6.70
2019-01-18T13:09:26.985Z,6.80
2019-01-18T13:12:08.584Z,6.80
2019-01-18T13:14:38.179Z,6.80
2019-01-18T13:17:12.042Z,6.80
2019-01-18T13:19:46.765Z,6.70
2019-01-18T13:22:31.430Z,6.50
2019-01-18T13:25:07.490Z,6.60
2019-01-18T13:27:40.702Z,6.60
2019-01-18T13:30:19.855Z,6.70
2019-01-18T13:32:58.097Z,6.70
2019-01-18T13:35:41.957Z,6.70
2019-01-18T13:38:08.187Z,6.70
2019-01-18T13:40:38.651Z,6.80
2019-01-18T13:43:07.572Z,6.80
2019-01-18T13:45:40.939Z,6.80
2019-01-18T13:48:13.181Z,6.80
2019-01-18T13:50:42.238Z,6.70
2019-01-18T13:53:14.239Z,6.70
2019-01-18T13:55:46.370Z,6.80
2019-01-18T13:58:20.669Z,6.90
2019-01-18T14:01:00.430Z,6.80
2019-01-18T14:03:42.976Z,6.80
2019-01-18T14:06:10.107Z,6.90
2019-01-18T14:08:41.696Z,7.00
2019-01-18T14:11:20.721Z,7.10
2019-01-18T14:13:53.724Z,7.10
2019-01-18T14:16:26.690Z,7.10
2019-01-18T14:18:57.837Z,7.20
2019-01-18T14:21:30.636Z,6.70
2019-01-18T14:24:00.932Z,7.30
2019-01-18T14:26:33.373Z,7.00
2019-01-18T14:29:11.917Z,6.80
2019-01-18T14:31:43.861Z,6.90
2019-01-18T14:34:15.836Z,6.80
2019-01-18T14:36:49.729Z,6.90
2019-01-18T14:39:21.479Z,7.00
2019-01-18T14:41:55.134Z,7.10
2019-01-18T14:44:27.383Z,7.20
2019-01-18T14:46:58.820Z,7.10
2019-01-18T14:49:32.524Z,7.10
2019-01-18T14:52:03.840Z,7.10
2019-01-18T14:54:37.820Z,7.10
2019-01-18T14:57:13.729Z,7.20
2019-01-18T14:59:48.522Z,7.20
2019-01-18T15:02:22.401Z,7.20
2019-01-18T15:04:52.306Z,7.20
2019-01-18T15:07:30.945Z,7.20
2019-01-18T15:10:04.976Z,7.20
2019-01-18T15:12:34.426Z,7.00
2019-01-18T15:15:08.786Z,7.00
2019-01-18T15:17:43.366Z,7.00
2019-01-18T15:20:36.549Z,5.50
2019-01-18T15:23:17.429Z,7.60
2019-01-18T15:25:47.373Z,6.90
2019-01-18T15:28:18.069Z,6.80
2019-01-18T15:30:49.195Z,6.70
2019-01-18T15:33:25.582Z,6.60
2019-01-18T15:35:57.689Z,6.60
2019-01-18T15:38:36.232Z,6.60
2019-01-18T15:41:07.364Z,6.60
2019-01-18T15:43:41.595Z,8.30
2019-01-18T15:46:14.930Z,6.50
2019-01-18T15:48:49.810Z,6.40
2019-01-18T15:51:21.148Z,6.40
2019-01-18T15:53:51.914Z,6.50
2019-01-18T15:56:20.850Z,6.30
2019-01-18T15:58:50.491Z,6.20
2019-01-18T16:01:21.736Z,6.00
2019-01-18T16:03:55.144Z,5.90
2019-01-18T16:06:25.520Z,5.80
2019-01-18T16:08:59.226Z,5.80
2019-01-18T16:11:48.654Z,5.70
2019-01-18T16:14:26.318Z,5.80
2019-01-18T16:17:06.350Z,6.00
2019-01-18T16:19:40.784Z,6.00
2019-01-18T16:22:16.348Z,5.90
2019-01-18T16:27:41.832Z,5.90
2019-01-18T16:30:19.491Z,6.00
2019-01-18T16:32:56.480Z,5.90
2019-01-18T16:35:31.438Z,5.90
2019-01-18T16:38:01.222Z,5.80
2019-01-18T16:40:34.846Z,5.80
2019-01-18T16:43:27.329Z,5.70
2019-01-18T16:45:54.378Z,5.80
2019-01-18T16:48:27.063Z,5.70
2019-01-18T16:51:00.264Z,5.60
2019-01-18T16:53:34.625Z,5.60
2019-01-18T16:56:09.965Z,6.10
2019-01-18T16:58:45.668Z,5.60
2019-01-18T17:04:08.425Z,5.70
2019-01-18T17:06:45.619Z,7.60
2019-01-18T17:09:24.373Z,5.60
2019-01-18T17:12:07.032Z,5.60
2019-01-18T17:14:47.273Z,5.70
2019-01-18T17:17:20.415Z,5.60
2019-01-18T17:19:57.307Z,5.60
2019-01-18T17:22:28.232Z,5.50
2019-01-18T17:25:01.414Z,5.60
2019-01-18T17:27:36.328Z,5.60
2019-01-18T17:30:18.942Z,5.40
2019-01-18T17:32:57.239Z,5.10
2019-01-18T17:35:54.112Z,4.60
2019-01-18T17:38:38.266Z,5.30
2019-01-18T17:41:24.356Z,5.30
2019-01-18T17:44:23.736Z,5.00
2019-01-18T17:47:33.323Z,5.20
2019-01-18T17:50:28.453Z,5.00
2019-01-18T17:53:13.077Z,5.10
2019-01-18T17:56:08.301Z,5.10
2019-01-18T17:58:51.711Z,5.20
2019-01-18T18:01:49.524Z,5.20
2019-01-18T18:04:40.852Z,4.90
2019-01-18T18:07:31.660Z,4.80
2019-01-18T18:10:36.030Z,4.80
2019-01-18T18:13:28.123Z,4.80
2019-01-18T18:16:10.633Z,4.90
2019-01-18T18:19:08.090Z,5.00
2019-01-18T18:21:57.964Z,5.00
2019-01-18T18:24:48.127Z,5.00
2019-01-18T18:27:51.686Z,4.80
2019-01-18T18:30:27.465Z,4.80
2019-01-18T18:33:32.912Z,4.80
2019-01-18T18:36:16.615Z,6.00
2019-01-18T18:39:22.108Z,4.90
2019-01-18T18:42:14.523Z,4.90
2019-01-18T18:44:54.945Z,5.00
2019-01-18T18:47:25.912Z,5.00
2019-01-18T18:50:00.945Z,5.00
2019-01-18T18:53:11.646Z,4.90
2019-01-18T18:56:07.749Z,4.80
2019-01-18T18:59:20.646Z,4.80
2019-01-18T19:02:09.732Z,4.80
2019-01-18T19:04:47.331Z,4.80
2019-01-18T19:07:28.462Z,4.70
2019-01-18T19:10:19.899Z,4.60
2019-01-18T19:12:59.550Z,4.60
2019-01-18T19:16:04.745Z,4.40
2019-01-18T19:18:48.600Z,4.50
2019-01-18T19:21:35.436Z,4.50
2019-01-18T19:24:38.849Z,4.60
2019-01-18T19:27:17.160Z,4.50
2019-01-18T19:30:23.388Z,4.50
2019-01-18T19:33:21.230Z,4.40
2019-01-18T19:36:03.213Z,4.50
2019-01-18T19:39:18.008Z,4.30
2019-01-18T19:42:31.008Z,4.40
2019-01-18T19:45:22.061Z,4.40
2019-01-18T19:48:06.340Z,4.40
2019-01-18T19:50:51.425Z,4.40
2019-01-18T19:53:35.147Z,4.40
2019-01-18T19:56:13.566Z,4.40
2019-01-18T19:59:04.869Z,4.50
2019-01-18T20:01:41.900Z,4.40
2019-01-18T20:04:16.862Z,2.60
2019-01-18T20:07:29.627Z,4.40
2019-01-18T20:10:05.283Z,4.30
2019-01-18T20:12:43.459Z,4.30
2019-01-18T20:15:40.815Z,4.30
2019-01-18T20:18:34.475Z,4.20
2019-01-18T20:21:22.140Z,4.20
2019-01-18T20:24:21.342Z,4.20
2019-01-18T20:27:32.469Z,5.20
2019-01-18T20:30:22.407Z,4.30
2019-01-18T20:33:14.545Z,4.30
2019-01-18T20:36:14.077Z,4.00
2019-01-18T20:38:55.539Z,3.80
2019-01-18T20:41:46.545Z,3.80
2019-01-18T20:44:39.460Z,3.90
2019-01-18T20:47:17.756Z,4.00
2019-01-18T20:50:34.699Z,4.10
2019-01-18T20:53:17.846Z,4.00
2019-01-18T20:56:08.228Z,4.10
2019-01-18T20:59:04.406Z,4.00
2019-01-18T21:01:59.858Z,4.00
2019-01-18T21:04:47.624Z,2.90
2019-01-18T21:07:33.337Z,3.90
2019-01-18T21:10:44.712Z,4.00
2019-01-18T21:16:35.802Z,4.00
2019-01-18T21:22:19.988Z,4.00
2019-01-18T21:25:28.524Z,4.00
2019-01-18T21:28:01.786Z,4.00
2019-01-18T21:30:56.544Z,4.00
2019-01-18T21:33:41.240Z,3.90
2019-01-18T21:36:23.167Z,3.80
2019-01-18T21:39:13.259Z,3.90
2019-01-18T21:41:58.069Z,3.90
2019-01-18T21:45:05.307Z,4.00
2019-01-18T21:50:59.536Z,3.90
2019-01-18T21:53:44.348Z,3.90
2019-01-18T21:56:38.539Z,3.80
2019-01-18T21:59:32.243Z,3.70
2019-01-18T22:02:13.463Z,3.70
2019-01-18T22:04:55.867Z,3.70
2019-01-18T22:10:33.065Z,3.70
2019-01-18T22:13:12.130Z,3.70
2019-01-18T22:16:09.426Z,3.60
2019-01-18T22:18:56.028Z,3.60
2019-01-18T22:21:38.263Z,3.60
2019-01-18T22:24:23.282Z,3.60
2019-01-18T22:27:14.991Z,3.60
2019-01-18T22:30:04.256Z,3.50
2019-01-18T22:32:47.907Z,3.50
2019-01-18T22:35:48.605Z,3.50
2019-01-18T22:38:34.754Z,3.50
2019-01-18T22:41:48.113Z,3.50
2019-01-18T22:44:40.199Z,3.50
2019-01-18T22:47:31.905Z,3.50
2019-01-18T22:50:09.176Z,3.50
2019-01-18T22:52:52.362Z,3.40
2019-01-18T22:55:47.271Z,2.70
2019-01-18T22:58:22.648Z,3.20
2019-01-18T23:01:13.670Z,3.10
2019-01-18T23:03:51.720Z,2.90
2019-01-18T23:06:43.558Z,2.90
2019-01-18T23:09:24.387Z,2.90
2019-01-18T23:12:20.600Z,3.00
2019-01-18T23:15:18.785Z,3.10
2019-01-18T23:18:11.046Z,3.10
2019-01-18T23:20:53.017Z,3.10
2019-01-18T23:23:30.576Z,3.50
2019-01-18T23:26:11.365Z,3.10
2019-01-18T23:29:01.752Z,3.00
2019-01-18T23:31:36.508Z,2.70
2019-01-18T23:34:17.247Z,2.90
2019-01-18T23:37:08.172Z,2.90
2019-01-18T23:39:57.310Z,2.90
2019-01-18T23:42:51.984Z,2.90
2019-01-18T23:45:35.597Z,2.90
2019-01-18T23:48:15.376Z,2.90
2019-01-18T23:51:15.905Z,2.90
2019-01-18T23:54:05.266Z,2.90
2019-01-18T23:57:19.606Z,2.90
